sensor_id;sensor_type;location;lat;lon;timestamp;pressure;altitude;pressure_sealevel;temperature;humidity
55679;BME280;41573;51.446;-2.018;2022-09-30T00:00:59;100083.69;;;6.72;100.00
55679;BME280;41573;51.446;-2.018;2022-09-30T00:03:25;100079.81;;;6.45;100.00
55679;BME280;41573;51.446;-2.018;2022-09-30T00:06:00;100077.31;;;6.24;100.00
55679;BME280;41573;51.446;-2.018;2022-09-30T00:08:27;100074.50;;;6.10;100.00
55679;BME280;41573;51.446;-2.018;2022-09-30T00:11:07;100064.47;;;5.99;100.00
55679;BME280;41573;51.446;-2.018;2022-09-30T00:13:36;100076.31;;;5.90;100.00
55679;BME280;41573;51.446;-2.018;2022-09-30T00:16:02;100078.41;;;5.83;100.00
55679;BME280;41573;51.446;-2.018;2022-09-30T00:18:28;100074.13;;;5.81;100.00
55679;BME280;41573;51.446;-2.018;2022-09-30T00:20:54;100070.63;;;5.80;100.00
55679;BME280;41573;51.446;-2.018;2022-09-30T00:23:20;100089.97;;;5.81;100.00
55679;BME280;41573;51.446;-2.018;2022-09-30T00:25:46;100093.41;;;5.83;100.00
55679;BME280;41573;51.446;-2.018;2022-09-30T00:28:12;100086.31;;;5.83;100.00
55679;BME280;41573;51.446;-2.018;2022-09-30T00:30:38;100101.94;;;5.88;100.00
55679;BME280;41573;51.446;-2.018;2022-09-30T00:33:03;100094.66;;;5.93;100.00
55679;BME280;41573;51.446;-2.018;2022-09-30T00:35:29;100090.97;;;5.97;100.00
55679;BME280;41573;51.446;-2.018;2022-09-30T00:37:54;100086.31;;;6.02;100.00
55679;BME280;41573;51.446;-2.018;2022-09-30T00:40:20;100088.81;;;6.06;100.00
55679;BME280;41573;51.446;-2.018;2022-09-30T00:42:45;100092.06;;;6.11;100.00
55679;BME280;41573;51.446;-2.018;2022-09-30T00:45:12;100083.06;;;6.15;100.00
55679;BME280;41573;51.446;-2.018;2022-09-30T00:48:02;100074.97;;;6.18;100.00
55679;BME280;41573;51.446;-2.018;2022-09-30T00:56:10;100081.22;;;6.17;100.00
55679;BME280;41573;51.446;-2.018;2022-09-30T01:01:05;100083.66;;;6.02;100.00
55679;BME280;41573;51.446;-2.018;2022-09-30T01:03:37;100086.03;;;5.90;100.00
55679;BME280;41573;51.446;-2.018;2022-09-30T01:06:04;100097.13;;;5.79;100.00
55679;BME280;41573;51.446;-2.018;2022-09-30T01:08:31;100096.72;;;5.69;100.00
55679;BME280;41573;51.446;-2.018;2022-09-30T01:10:57;100092.72;;;5.60;100.00
55679;BME280;41573;51.446;-2.018;2022-09-30T01:13:30;100097.28;;;5.57;100.00
55679;BME280;41573;51.446;-2.018;2022-09-30T01:21:54;100102.16;;;5.28;100.00
55679;BME280;41573;51.446;-2.018;2022-09-30T01:24:31;100096.06;;;5.26;100.00
55679;BME280;41573;51.446;-2.018;2022-09-30T01:30:06;100102.44;;;5.22;100.00
55679;BME280;41573;51.446;-2.018;2022-09-30T01:35:22;100085.66;;;5.23;100.00
55679;BME280;41573;51.446;-2.018;2022-09-30T01:40:44;100087.28;;;5.25;100.00
55679;BME280;41573;51.446;-2.018;2022-09-30T01:52:09;100097.16;;;5.22;100.00
55679;BME280;41573;51.446;-2.018;2022-09-30T01:57:27;100104.34;;;5.18;100.00
55679;BME280;41573;51.446;-2.018;2022-09-30T02:02:32;100117.84;;;5.12;100.00
55679;BME280;41573;51.446;-2.018;2022-09-30T02:05:06;100110.03;;;5.09;100.00
55679;BME280;41573;51.446;-2.018;2022-09-30T02:07:55;100119.81;;;5.07;100.00
55679;BME280;41573;51.446;-2.018;2022-09-30T02:10:26;100121.53;;;5.08;100.00
55679;BME280;41573;51.446;-2.018;2022-09-30T02:13:35;100118.91;;;5.08;100.00
55679;BME280;41573;51.446;-2.018;2022-09-30T02:15:55;100114.38;;;5.10;100.00
55679;BME280;41573;51.446;-2.018;2022-09-30T02:18:52;100118.59;;;5.14;100.00
55679;BME280;41573;51.446;-2.018;2022-09-30T02:21:23;100116.78;;;5.16;100.00
55679;BME280;41573;51.446;-2.018;2022-09-30T02:23:54;100111.28;;;5.21;100.00
55679;BME280;41573;51.446;-2.018;2022-09-30T02:26:44;100112.78;;;5.26;100.00
55679;BME280;41573;51.446;-2.018;2022-09-30T02:29:21;100121.97;;;5.37;100.00
55679;BME280;41573;51.446;-2.018;2022-09-30T02:31:51;100110.28;;;5.42;100.00
55679;BME280;41573;51.446;-2.018;2022-09-30T02:34:28;100108.63;;;5.40;100.00
55679;BME280;41573;51.446;-2.018;2022-09-30T02:37:19;100106.91;;;5.39;100.00
55679;BME280;41573;51.446;-2.018;2022-09-30T02:39:53;100111.13;;;5.43;100.00
55679;BME280;41573;51.446;-2.018;2022-09-30T02:42:25;100111.06;;;5.44;100.00
55679;BME280;41573;51.446;-2.018;2022-09-30T02:44:54;100103.56;;;5.35;100.00
55679;BME280;41573;51.446;-2.018;2022-09-30T02:50:35;100096.13;;;4.86;100.00
55679;BME280;41573;51.446;-2.018;2022-09-30T02:58:46;100096.13;;;4.45;100.00
55679;BME280;41573;51.446;-2.018;2022-09-30T03:01:15;100096.50;;;4.36;100.00
55679;BME280;41573;51.446;-2.018;2022-09-30T03:03:50;100096.63;;;4.32;100.00
55679;BME280;41573;51.446;-2.018;2022-09-30T03:06:17;100094.72;;;4.36;100.00
55679;BME280;41573;51.446;-2.018;2022-09-30T03:08:45;100090.31;;;4.37;100.00
55679;BME280;41573;51.446;-2.018;2022-09-30T03:11:16;100087.69;;;4.37;100.00
55679;BME280;41573;51.446;-2.018;2022-09-30T03:19:23;100085.44;;;4.48;100.00
55679;BME280;41573;51.446;-2.018;2022-09-30T03:27:33;100075.94;;;4.64;100.00
55679;BME280;41573;51.446;-2.018;2022-09-30T03:30:07;100087.53;;;4.60;100.00
55679;BME280;41573;51.446;-2.018;2022-09-30T03:45:57;100079.16;;;4.09;100.00
55679;BME280;41573;51.446;-2.018;2022-09-30T03:48:26;100089.63;;;4.11;100.00
55679;BME280;41573;51.446;-2.018;2022-09-30T03:50:53;100081.59;;;4.14;100.00
55679;BME280;41573;51.446;-2.018;2022-09-30T03:53:20;100084.84;;;4.21;100.00
55679;BME280;41573;51.446;-2.018;2022-09-30T03:55:48;100086.47;;;4.23;100.00
55679;BME280;41573;51.446;-2.018;2022-09-30T03:58:16;100081.03;;;4.28;100.00
55679;BME280;41573;51.446;-2.018;2022-09-30T04:00:47;100091.59;;;4.26;100.00
55679;BME280;41573;51.446;-2.018;2022-09-30T04:03:13;100098.59;;;4.27;100.00
55679;BME280;41573;51.446;-2.018;2022-09-30T04:05:39;100091.50;;;4.29;100.00
55679;BME280;41573;51.446;-2.018;2022-09-30T04:08:04;100087.81;;;4.34;100.00
55679;BME280;41573;51.446;-2.018;2022-09-30T04:10:30;100096.22;;;4.42;100.00
55679;BME280;41573;51.446;-2.018;2022-09-30T04:12:55;100093.34;;;4.48;100.00
55679;BME280;41573;51.446;-2.018;2022-09-30T04:15:22;100093.44;;;4.46;100.00
55679;BME280;41573;51.446;-2.018;2022-09-30T04:17:47;100092.16;;;4.55;100.00
55679;BME280;41573;51.446;-2.018;2022-09-30T04:20:12;100093.88;;;4.56;100.00
55679;BME280;41573;51.446;-2.018;2022-09-30T04:22:38;100095.72;;;4.54;100.00
55679;BME280;41573;51.446;-2.018;2022-09-30T04:25:04;100099.88;;;4.60;100.00
55679;BME280;41573;51.446;-2.018;2022-09-30T04:27:29;100100.59;;;4.63;100.00
55679;BME280;41573;51.446;-2.018;2022-09-30T04:29:55;100105.75;;;4.66;100.00
55679;BME280;41573;51.446;-2.018;2022-09-30T04:32:21;100095.91;;;4.70;100.00
55679;BME280;41573;51.446;-2.018;2022-09-30T04:34:47;100102.91;;;4.71;100.00
55679;BME280;41573;51.446;-2.018;2022-09-30T04:37:12;100096.50;;;4.77;100.00
55679;BME280;41573;51.446;-2.018;2022-09-30T04:39:38;100085.81;;;4.80;100.00
55679;BME280;41573;51.446;-2.018;2022-09-30T04:42:04;100087.53;;;4.81;100.00
55679;BME280;41573;51.446;-2.018;2022-09-30T04:44:30;100085.66;;;4.83;100.00
55679;BME280;41573;51.446;-2.018;2022-09-30T04:46:57;100084.69;;;4.86;100.00
55679;BME280;41573;51.446;-2.018;2022-09-30T04:49:22;100084.47;;;4.90;100.00
55679;BME280;41573;51.446;-2.018;2022-09-30T04:51:48;100094.09;;;4.91;100.00
55679;BME280;41573;51.446;-2.018;2022-09-30T04:54:14;100088.13;;;4.88;100.00
55679;BME280;41573;51.446;-2.018;2022-09-30T04:56:40;100085.56;;;4.86;100.00
55679;BME280;41573;51.446;-2.018;2022-09-30T04:59:06;100091.81;;;4.83;100.00
55679;BME280;41573;51.446;-2.018;2022-09-30T05:01:32;100090.09;;;4.82;100.00
55679;BME280;41573;51.446;-2.018;2022-09-30T05:03:57;100074.34;;;4.81;100.00
55679;BME280;41573;51.446;-2.018;2022-09-30T05:06:23;100078.78;;;4.80;100.00
55679;BME280;41573;51.446;-2.018;2022-09-30T05:08:48;100082.13;;;4.84;100.00
55679;BME280;41573;51.446;-2.018;2022-09-30T05:11:19;100073.28;;;4.85;100.00
55679;BME280;41573;51.446;-2.018;2022-09-30T05:13:46;100068.91;;;4.84;100.00
55679;BME280;41573;51.446;-2.018;2022-09-30T05:16:13;100069.50;;;4.91;100.00
55679;BME280;41573;51.446;-2.018;2022-09-30T05:18:39;100073.81;;;4.93;100.00
55679;BME280;41573;51.446;-2.018;2022-09-30T05:21:07;100067.44;;;4.97;100.00
55679;BME280;41573;51.446;-2.018;2022-09-30T05:23:32;100066.66;;;4.95;100.00
55679;BME280;41573;51.446;-2.018;2022-09-30T05:25:59;100067.44;;;4.97;100.00
55679;BME280;41573;51.446;-2.018;2022-09-30T05:28:25;100063.09;;;4.96;100.00
55679;BME280;41573;51.446;-2.018;2022-09-30T05:30:56;100064.00;;;4.95;100.00
55679;BME280;41573;51.446;-2.018;2022-09-30T05:33:24;100058.75;;;4.95;100.00
55679;BME280;41573;51.446;-2.018;2022-09-30T05:35:50;100053.38;;;4.97;100.00
55679;BME280;41573;51.446;-2.018;2022-09-30T05:38:16;100050.59;;;5.00;100.00
55679;BME280;41573;51.446;-2.018;2022-09-30T05:40:41;100051.34;;;5.04;100.00
55679;BME280;41573;51.446;-2.018;2022-09-30T05:43:07;100042.50;;;5.05;100.00
55679;BME280;41573;51.446;-2.018;2022-09-30T05:45:33;100043.06;;;5.11;100.00
55679;BME280;41573;51.446;-2.018;2022-09-30T05:47:58;100042.78;;;5.17;100.00
55679;BME280;41573;51.446;-2.018;2022-09-30T05:50:24;100036.38;;;5.23;100.00
55679;BME280;41573;51.446;-2.018;2022-09-30T05:52:50;100038.78;;;5.28;100.00
55679;BME280;41573;51.446;-2.018;2022-09-30T05:55:17;100031.34;;;5.36;100.00
55679;BME280;41573;51.446;-2.018;2022-09-30T05:57:43;100026.63;;;5.43;100.00
55679;BME280;41573;51.446;-2.018;2022-09-30T06:00:10;100029.75;;;5.51;100.00
55679;BME280;41573;51.446;-2.018;2022-09-30T06:02:36;100034.03;;;5.53;100.00
55679;BME280;41573;51.446;-2.018;2022-09-30T06:05:05;100035.59;;;5.58;100.00
55679;BME280;41573;51.446;-2.018;2022-09-30T06:07:34;100038.81;;;5.64;100.00
55679;BME280;41573;51.446;-2.018;2022-09-30T06:10:01;100030.75;;;5.67;100.00
55679;BME280;41573;51.446;-2.018;2022-09-30T06:12:27;100017.44;;;5.69;100.00
55679;BME280;41573;51.446;-2.018;2022-09-30T06:14:53;100028.72;;;5.73;100.00
55679;BME280;41573;51.446;-2.018;2022-09-30T06:17:19;100037.50;;;5.73;100.00
55679;BME280;41573;51.446;-2.018;2022-09-30T06:19:44;100039.28;;;5.73;100.00
55679;BME280;41573;51.446;-2.018;2022-09-30T06:22:10;100049.72;;;5.76;100.00
55679;BME280;41573;51.446;-2.018;2022-09-30T06:24:35;100037.34;;;5.76;100.00
55679;BME280;41573;51.446;-2.018;2022-09-30T06:27:01;100025.88;;;5.77;100.00
55679;BME280;41573;51.446;-2.018;2022-09-30T06:29:26;100025.69;;;5.80;100.00
55679;BME280;41573;51.446;-2.018;2022-09-30T06:31:52;100034.97;;;5.89;100.00
55679;BME280;41573;51.446;-2.018;2022-09-30T06:34:17;100022.25;;;5.97;100.00
55679;BME280;41573;51.446;-2.018;2022-09-30T06:36:43;100016.34;;;6.10;100.00
55679;BME280;41573;51.446;-2.018;2022-09-30T06:39:09;100026.28;;;6.22;100.00
55679;BME280;41573;51.446;-2.018;2022-09-30T06:41:34;100020.72;;;6.28;100.00
55679;BME280;41573;51.446;-2.018;2022-09-30T06:44:04;100025.50;;;6.37;100.00
55679;BME280;41573;51.446;-2.018;2022-09-30T06:46:29;100023.31;;;6.46;100.00
55679;BME280;41573;51.446;-2.018;2022-09-30T06:48:55;100016.22;;;6.46;100.00
55679;BME280;41573;51.446;-2.018;2022-09-30T06:51:22;100011.81;;;6.47;100.00
55679;BME280;41573;51.446;-2.018;2022-09-30T06:53:51;100006.44;;;6.48;100.00
55679;BME280;41573;51.446;-2.018;2022-09-30T06:56:17;100003.63;;;6.51;100.00
55679;BME280;41573;51.446;-2.018;2022-09-30T06:58:44;99998.19;;;6.54;100.00
55679;BME280;41573;51.446;-2.018;2022-09-30T07:01:10;100000.34;;;6.64;100.00
55679;BME280;41573;51.446;-2.018;2022-09-30T07:03:37;99997.28;;;6.71;100.00
55679;BME280;41573;51.446;-2.018;2022-09-30T07:06:04;100006.59;;;6.79;100.00
55679;BME280;41573;51.446;-2.018;2022-09-30T07:08:32;100014.06;;;6.88;100.00
55679;BME280;41573;51.446;-2.018;2022-09-30T07:11:03;100009.19;;;6.96;100.00
55679;BME280;41573;51.446;-2.018;2022-09-30T07:13:29;100000.91;;;7.18;100.00
55679;BME280;41573;51.446;-2.018;2022-09-30T07:15:54;100006.97;;;7.52;100.00
55679;BME280;41573;51.446;-2.018;2022-09-30T07:18:24;100011.19;;;7.87;100.00
55679;BME280;41573;51.446;-2.018;2022-09-30T07:20:53;100012.38;;;8.11;100.00
55679;BME280;41573;51.446;-2.018;2022-09-30T07:23:20;100025.38;;;8.47;100.00
55679;BME280;41573;51.446;-2.018;2022-09-30T07:25:54;100026.91;;;8.65;100.00
55679;BME280;41573;51.446;-2.018;2022-09-30T07:28:26;100018.97;;;8.79;100.00
55679;BME280;41573;51.446;-2.018;2022-09-30T07:30:55;100013.28;;;9.00;100.00
55679;BME280;41573;51.446;-2.018;2022-09-30T07:33:25;100001.88;;;9.12;100.00
55679;BME280;41573;51.446;-2.018;2022-09-30T07:35:56;99987.31;;;9.18;100.00
55679;BME280;41573;51.446;-2.018;2022-09-30T07:38:24;99985.13;;;9.25;100.00
55679;BME280;41573;51.446;-2.018;2022-09-30T07:41:05;99971.13;;;9.23;100.00
55679;BME280;41573;51.446;-2.018;2022-09-30T07:43:34;99968.25;;;9.26;100.00
55679;BME280;41573;51.446;-2.018;2022-09-30T07:48:35;99953.66;;;9.19;100.00
55679;BME280;41573;51.446;-2.018;2022-09-30T07:51:20;99941.63;;;9.13;100.00
55679;BME280;41573;51.446;-2.018;2022-09-30T07:53:53;99939.28;;;9.08;100.00
55679;BME280;41573;51.446;-2.018;2022-09-30T07:56:19;99942.19;;;9.04;100.00
55679;BME280;41573;51.446;-2.018;2022-09-30T07:58:45;99944.53;;;8.95;100.00
55679;BME280;41573;51.446;-2.018;2022-09-30T08:01:10;99940.53;;;9.03;100.00
55679;BME280;41573;51.446;-2.018;2022-09-30T08:03:38;99935.31;;;9.01;100.00
55679;BME280;41573;51.446;-2.018;2022-09-30T08:06:09;99941.34;;;9.03;100.00
55679;BME280;41573;51.446;-2.018;2022-09-30T08:08:35;99935.75;;;9.08;100.00
55679;BME280;41573;51.446;-2.018;2022-09-30T08:11:01;99928.81;;;9.05;100.00
55679;BME280;41573;51.446;-2.018;2022-09-30T08:13:27;99923.03;;;9.13;100.00
55679;BME280;41573;51.446;-2.018;2022-09-30T08:15:53;99934.50;;;9.13;100.00
55679;BME280;41573;51.446;-2.018;2022-09-30T08:18:18;99933.56;;;9.14;100.00
55679;BME280;41573;51.446;-2.018;2022-09-30T08:20:43;99927.09;;;9.19;100.00
55679;BME280;41573;51.446;-2.018;2022-09-30T08:23:09;99927.00;;;9.20;100.00
55679;BME280;41573;51.446;-2.018;2022-09-30T08:25:34;99916.94;;;9.25;100.00
55679;BME280;41573;51.446;-2.018;2022-09-30T08:28:00;99915.31;;;9.23;100.00
55679;BME280;41573;51.446;-2.018;2022-09-30T08:30:25;99906.72;;;9.32;100.00
55679;BME280;41573;51.446;-2.018;2022-09-30T08:32:50;99904.06;;;9.32;100.00
55679;BME280;41573;51.446;-2.018;2022-09-30T08:35:16;99891.25;;;9.39;100.00
55679;BME280;41573;51.446;-2.018;2022-09-30T08:37:41;99901.34;;;9.46;100.00
55679;BME280;41573;51.446;-2.018;2022-09-30T08:40:16;99892.63;;;9.44;100.00
55679;BME280;41573;51.446;-2.018;2022-09-30T08:47:39;99901.56;;;9.43;100.00
55679;BME280;41573;51.446;-2.018;2022-09-30T08:50:48;99897.44;;;9.52;100.00
55679;BME280;41573;51.446;-2.018;2022-09-30T08:53:25;99895.97;;;9.61;100.00
55679;BME280;41573;51.446;-2.018;2022-09-30T08:55:53;99893.84;;;9.66;100.00
55679;BME280;41573;51.446;-2.018;2022-09-30T08:58:37;99880.91;;;9.74;100.00
55679;BME280;41573;51.446;-2.018;2022-09-30T09:03:39;99878.25;;;9.87;100.00
55679;BME280;41573;51.446;-2.018;2022-09-30T09:06:15;99884.84;;;9.94;100.00
55679;BME280;41573;51.446;-2.018;2022-09-30T09:15:24;99885.72;;;10.08;100.00
55679;BME280;41573;51.446;-2.018;2022-09-30T09:20:46;99863.78;;;10.04;100.00
55679;BME280;41573;51.446;-2.018;2022-09-30T09:23:12;99870.38;;;10.11;100.00
55679;BME280;41573;51.446;-2.018;2022-09-30T09:25:38;99867.09;;;10.21;100.00
55679;BME280;41573;51.446;-2.018;2022-09-30T09:28:13;99870.69;;;10.20;100.00
55679;BME280;41573;51.446;-2.018;2022-09-30T09:30:48;99872.69;;;10.29;100.00
55679;BME280;41573;51.446;-2.018;2022-09-30T09:33:21;99866.13;;;10.34;100.00
55679;BME280;41573;51.446;-2.018;2022-09-30T09:36:17;99874.66;;;10.40;100.00
55679;BME280;41573;51.446;-2.018;2022-09-30T09:44:55;99850.09;;;10.60;100.00
55679;BME280;41573;51.446;-2.018;2022-09-30T09:47:13;99853.41;;;10.64;100.00
55679;BME280;41573;51.446;-2.018;2022-09-30T09:50:12;99852.84;;;10.72;100.00
55679;BME280;41573;51.446;-2.018;2022-09-30T09:55:21;99832.41;;;10.96;100.00
55679;BME280;41573;51.446;-2.018;2022-09-30T09:57:46;99830.16;;;11.03;100.00
55679;BME280;41573;51.446;-2.018;2022-09-30T10:00:24;99826.22;;;11.20;100.00
55679;BME280;41573;51.446;-2.018;2022-09-30T10:03:25;99830.47;;;11.23;100.00
55679;BME280;41573;51.446;-2.018;2022-09-30T10:06:08;99831.50;;;11.33;100.00
55679;BME280;41573;51.446;-2.018;2022-09-30T10:08:39;99818.41;;;11.41;100.00
55679;BME280;41573;51.446;-2.018;2022-09-30T10:11:26;99809.09;;;11.47;100.00
55679;BME280;41573;51.446;-2.018;2022-09-30T10:13:56;99801.63;;;11.63;100.00
55679;BME280;41573;51.446;-2.018;2022-09-30T10:16:32;99799.22;;;11.71;100.00
55679;BME280;41573;51.446;-2.018;2022-09-30T10:19:00;99790.34;;;11.82;100.00
55679;BME280;41573;51.446;-2.018;2022-09-30T10:21:28;99772.31;;;11.86;100.00
55679;BME280;41573;51.446;-2.018;2022-09-30T10:23:54;99767.47;;;11.91;100.00
55679;BME280;41573;51.446;-2.018;2022-09-30T10:26:44;99761.44;;;12.00;100.00
55679;BME280;41573;51.446;-2.018;2022-09-30T10:29:24;99758.13;;;12.08;100.00
55679;BME280;41573;51.446;-2.018;2022-09-30T10:31:51;99754.63;;;12.19;100.00
55679;BME280;41573;51.446;-2.018;2022-09-30T10:34:20;99754.22;;;12.23;100.00
55679;BME280;41573;51.446;-2.018;2022-09-30T10:36:48;99753.97;;;12.38;100.00
55679;BME280;41573;51.446;-2.018;2022-09-30T10:39:34;99743.66;;;12.45;100.00
55679;BME280;41573;51.446;-2.018;2022-09-30T10:42:01;99726.28;;;12.50;100.00
55679;BME280;41573;51.446;-2.018;2022-09-30T10:44:27;99708.50;;;12.61;100.00
55679;BME280;41573;51.446;-2.018;2022-09-30T10:46:58;99703.38;;;12.69;100.00
55679;BME280;41573;51.446;-2.018;2022-09-30T10:49:49;99693.88;;;12.76;100.00
55679;BME280;41573;51.446;-2.018;2022-09-30T10:52:21;99693.56;;;12.90;100.00
55679;BME280;41573;51.446;-2.018;2022-09-30T10:54:53;99689.22;;;12.89;100.00
55679;BME280;41573;51.446;-2.018;2022-09-30T10:57:22;99677.72;;;12.99;100.00
55679;BME280;41573;51.446;-2.018;2022-09-30T10:59:49;99682.19;;;13.09;100.00
55679;BME280;41573;51.446;-2.018;2022-09-30T11:05:23;99679.03;;;13.25;100.00
55679;BME280;41573;51.446;-2.018;2022-09-30T11:08:08;99666.69;;;13.34;100.00
55679;BME280;41573;51.446;-2.018;2022-09-30T11:11:01;99666.31;;;13.39;100.00
55679;BME280;41573;51.446;-2.018;2022-09-30T11:14:00;99668.22;;;13.48;100.00
55679;BME280;41573;51.446;-2.018;2022-09-30T11:17:03;99659.25;;;13.59;100.00
55679;BME280;41573;51.446;-2.018;2022-09-30T11:19:50;99663.50;;;13.71;100.00
55679;BME280;41573;51.446;-2.018;2022-09-30T11:24:51;99655.78;;;13.78;100.00
55679;BME280;41573;51.446;-2.018;2022-09-30T11:30:11;99638.91;;;13.77;100.00
55679;BME280;41573;51.446;-2.018;2022-09-30T11:32:52;99635.94;;;13.81;100.00
55679;BME280;41573;51.446;-2.018;2022-09-30T11:35:28;99627.06;;;13.80;100.00
55679;BME280;41573;51.446;-2.018;2022-09-30T11:38:28;99629.72;;;13.80;100.00
55679;BME280;41573;51.446;-2.018;2022-09-30T11:49:34;99624.25;;;13.72;100.00
55679;BME280;41573;51.446;-2.018;2022-09-30T11:52:33;99615.91;;;13.65;100.00
55679;BME280;41573;51.446;-2.018;2022-09-30T11:57:58;99626.28;;;13.58;100.00
55679;BME280;41573;51.446;-2.018;2022-09-30T12:00:25;99618.56;;;13.65;100.00
55679;BME280;41573;51.446;-2.018;2022-09-30T12:02:58;99602.53;;;13.65;100.00
55679;BME280;41573;51.446;-2.018;2022-09-30T12:05:37;99590.56;;;13.69;100.00
55679;BME280;41573;51.446;-2.018;2022-09-30T12:08:17;99594.81;;;13.72;100.00
55679;BME280;41573;51.446;-2.018;2022-09-30T12:13:16;99593.09;;;13.71;100.00
55679;BME280;41573;51.446;-2.018;2022-09-30T12:15:44;99594.34;;;13.67;100.00
55679;BME280;41573;51.446;-2.018;2022-09-30T12:18:38;99585.34;;;13.68;100.00
55679;BME280;41573;51.446;-2.018;2022-09-30T12:21:17;99575.31;;;13.60;100.00
55679;BME280;41573;51.446;-2.018;2022-09-30T12:24:08;99573.09;;;13.65;100.00
55679;BME280;41573;51.446;-2.018;2022-09-30T12:26:39;99570.56;;;13.64;100.00
55679;BME280;41573;51.446;-2.018;2022-09-30T12:29:12;99558.00;;;13.54;100.00
55679;BME280;41573;51.446;-2.018;2022-09-30T12:37:08;99542.06;;;13.43;100.00
55679;BME280;41573;51.446;-2.018;2022-09-30T12:40:00;99549.94;;;13.35;100.00
55679;BME280;41573;51.446;-2.018;2022-09-30T12:47:59;99542.50;;;13.17;100.00
55679;BME280;41573;51.446;-2.018;2022-09-30T12:50:31;99537.69;;;13.11;100.00
55679;BME280;41573;51.446;-2.018;2022-09-30T12:53:14;99533.16;;;13.02;100.00
55679;BME280;41573;51.446;-2.018;2022-09-30T12:55:42;99533.81;;;12.94;100.00
55679;BME280;41573;51.446;-2.018;2022-09-30T12:58:23;99544.91;;;12.89;100.00
55679;BME280;41573;51.446;-2.018;2022-09-30T13:01:10;99552.16;;;12.77;100.00
55679;BME280;41573;51.446;-2.018;2022-09-30T13:03:48;99543.09;;;12.69;100.00
55679;BME280;41573;51.446;-2.018;2022-09-30T13:06:16;99552.09;;;12.68;100.00
55679;BME280;41573;51.446;-2.018;2022-09-30T13:09:33;99547.16;;;12.63;100.00
55679;BME280;41573;51.446;-2.018;2022-09-30T13:11:39;99566.66;;;12.54;100.00
55679;BME280;41573;51.446;-2.018;2022-09-30T13:19:59;99576.34;;;12.34;100.00
55679;BME280;41573;51.446;-2.018;2022-09-30T13:32:47;99542.75;;;11.87;100.00
55679;BME280;41573;51.446;-2.018;2022-09-30T13:35:48;99550.50;;;11.90;100.00
55679;BME280;41573;51.446;-2.018;2022-09-30T13:38:16;99533.28;;;11.95;100.00
55679;BME280;41573;51.446;-2.018;2022-09-30T13:40:46;99539.59;;;11.94;100.00
55679;BME280;41573;51.446;-2.018;2022-09-30T13:48:55;99519.69;;;11.98;100.00
55679;BME280;41573;51.446;-2.018;2022-09-30T13:51:24;99513.00;;;11.92;100.00
55679;BME280;41573;51.446;-2.018;2022-09-30T13:53:54;99502.13;;;11.95;100.00
55679;BME280;41573;51.446;-2.018;2022-09-30T13:56:32;99485.63;;;12.01;100.00
55679;BME280;41573;51.446;-2.018;2022-09-30T14:10:09;99435.88;;;12.21;100.00
55679;BME280;41573;51.446;-2.018;2022-09-30T14:15:49;99405.41;;;12.24;100.00
55679;BME280;41573;51.446;-2.018;2022-09-30T14:21:43;99395.56;;;12.24;100.00
55679;BME280;41573;51.446;-2.018;2022-09-30T14:24:13;99400.91;;;12.24;100.00
55679;BME280;41573;51.446;-2.018;2022-09-30T14:31:46;99383.06;;;12.25;100.00
55679;BME280;41573;51.446;-2.018;2022-09-30T14:34:14;99374.22;;;12.24;100.00
55679;BME280;41573;51.446;-2.018;2022-09-30T14:36:42;99359.19;;;12.23;100.00
55679;BME280;41573;51.446;-2.018;2022-09-30T14:39:17;99351.16;;;12.23;100.00
55679;BME280;41573;51.446;-2.018;2022-09-30T14:41:52;99344.41;;;12.19;100.00
55679;BME280;41573;51.446;-2.018;2022-09-30T14:44:22;99328.28;;;12.21;100.00
55679;BME280;41573;51.446;-2.018;2022-09-30T14:46:50;99330.09;;;12.20;100.00
55679;BME280;41573;51.446;-2.018;2022-09-30T14:49:19;99331.78;;;12.21;100.00
55679;BME280;41573;51.446;-2.018;2022-09-30T14:51:47;99324.47;;;12.23;100.00
55679;BME280;41573;51.446;-2.018;2022-09-30T14:54:24;99326.44;;;12.21;100.00
55679;BME280;41573;51.446;-2.018;2022-09-30T14:56:57;99314.06;;;12.20;100.00
55679;BME280;41573;51.446;-2.018;2022-09-30T14:59:24;99304.50;;;12.18;100.00
55679;BME280;41573;51.446;-2.018;2022-09-30T15:01:54;99298.19;;;12.19;100.00
55679;BME280;41573;51.446;-2.018;2022-09-30T15:04:28;99296.69;;;12.26;100.00
55679;BME280;41573;51.446;-2.018;2022-09-30T15:06:55;99293.47;;;12.32;100.00
55679;BME280;41573;51.446;-2.018;2022-09-30T15:12:22;99287.16;;;12.33;100.00
55679;BME280;41573;51.446;-2.018;2022-09-30T15:14:52;99295.56;;;12.29;100.00
55679;BME280;41573;51.446;-2.018;2022-09-30T15:17:23;99298.50;;;12.26;100.00
55679;BME280;41573;51.446;-2.018;2022-09-30T15:19:49;99296.94;;;12.23;100.00
55679;BME280;41573;51.446;-2.018;2022-09-30T15:22:16;99306.25;;;12.29;100.00
55679;BME280;41573;51.446;-2.018;2022-09-30T15:24:43;99295.00;;;12.35;100.00
55679;BME280;41573;51.446;-2.018;2022-09-30T15:29:57;99294.03;;;12.36;100.00
55679;BME280;41573;51.446;-2.018;2022-09-30T15:32:26;99268.03;;;12.38;100.00
55679;BME280;41573;51.446;-2.018;2022-09-30T15:34:53;99263.84;;;12.35;100.00
55679;BME280;41573;51.446;-2.018;2022-09-30T15:37:23;99271.44;;;12.40;100.00
55679;BME280;41573;51.446;-2.018;2022-09-30T15:39:50;99271.28;;;12.41;100.00
55679;BME280;41573;51.446;-2.018;2022-09-30T15:42:40;99269.31;;;12.44;100.00
55679;BME280;41573;51.446;-2.018;2022-09-30T15:48:04;99264.41;;;12.39;100.00
55679;BME280;41573;51.446;-2.018;2022-09-30T15:50:35;99255.28;;;12.41;100.00
55679;BME280;41573;51.446;-2.018;2022-09-30T15:53:25;99261.75;;;12.49;100.00
55679;BME280;41573;51.446;-2.018;2022-09-30T15:55:58;99245.88;;;12.47;100.00
55679;BME280;41573;51.446;-2.018;2022-09-30T15:58:39;99257.97;;;12.51;100.00
55679;BME280;41573;51.446;-2.018;2022-09-30T16:06:33;99249.69;;;12.54;100.00
55679;BME280;41573;51.446;-2.018;2022-09-30T16:09:05;99238.03;;;12.55;100.00
55679;BME280;41573;51.446;-2.018;2022-09-30T16:11:36;99235.34;;;12.55;100.00